ADDS METAR Data INFO
IDs: Format: Raw Decoded Include TAF

Data at: 1505 UTC 11 Dec 2017

KTVI 111455Z AUTO 27004KT 10SM CLR 10/03 A3029 RMK AO2
KTVI 111435Z AUTO 27003KT 10SM CLR 08/03 A3029 RMK AO2
KTVI 111415Z AUTO 27003KT 10SM CLR 08/03 A3030 RMK AO2
KTVI 111355Z AUTO 28003KT 10SM CLR 05/05 A3030 RMK AO2
KTVI 111335Z AUTO 00000KT 10SM CLR 02/02 A3030 RMK AO2
KTVI 111315Z AUTO 00000KT 10SM CLR 01/01 A3030 RMK AO2
KTVI 111255Z AUTO 00000KT 10SM CLR 00/00 A3030 RMK AO2
KTVI 111235Z AUTO 00000KT 10SM CLR 00/00 A3029 RMK AO2
KTVI 111215Z AUTO 00000KT 10SM CLR 00/00 A3029 RMK AO2
KTVI 111155Z AUTO 00000KT 10SM CLR 00/00 A3029 RMK AO2
KTVI 111135Z AUTO 00000KT 10SM CLR 00/00 A3029 RMK AO2
KTVI 111115Z AUTO 00000KT 10SM CLR 00/00 A3029 RMK AO2
KTVI 111055Z AUTO 00000KT 10SM CLR 00/00 A3028 RMK AO2
KTVI 111035Z AUTO 00000KT 10SM CLR 00/00 A3029 RMK AO2
KTVI 111015Z AUTO 00000KT 10SM CLR 00/00 A3029 RMK AO2
KTVI 110955Z AUTO 00000KT 10SM CLR 00/00 A3029 RMK AO2
KTVI 110935Z AUTO 00000KT 10SM CLR 00/00 A3029 RMK AO2
KTVI 110915Z AUTO 00000KT 10SM CLR 00/00 A3030 RMK AO2
KTVI 110855Z AUTO 00000KT 10SM CLR 00/00 A3030 RMK AO2
KTVI 110835Z AUTO 00000KT 10SM CLR 00/00 A3030 RMK AO2
KTVI 110815Z AUTO 00000KT 10SM CLR 00/00 A3030 RMK AO2
KTVI 110755Z AUTO 00000KT 10SM CLR 00/00 A3030 RMK AO2
KTVI 110735Z AUTO 00000KT 10SM CLR 00/00 A3030 RMK AO2
KTVI 110715Z AUTO 00000KT 10SM CLR 00/00 A3030 RMK AO2
KTVI 110655Z AUTO 00000KT 10SM CLR 01/01 A3030 RMK AO2
KTVI 110635Z AUTO 00000KT 10SM CLR 01/01 A3030 RMK AO2
KTVI 110615Z AUTO 00000KT 10SM CLR 01/01 A3031 RMK AO2
KTVI 110555Z AUTO 00000KT 10SM CLR 01/01 A3032 RMK AO2
KTVI 110535Z AUTO 00000KT 10SM CLR 02/00 A3032 RMK AO2
KTVI 110515Z AUTO 27003KT 10SM CLR 01/01 A3032 RMK AO2
KTVI 110455Z AUTO 00000KT 10SM CLR 02/02 A3032 RMK AO2
KTVI 110435Z AUTO 00000KT 10SM CLR 03/00 A3032 RMK AO2
KTVI 110415Z AUTO 30003KT 10SM CLR 03/00 A3031 RMK AO2
KTVI 110355Z AUTO 00000KT 10SM CLR 02/02 A3032 RMK AO2
KTVI 110335Z AUTO 00000KT 10SM CLR 02/02 A3031 RMK AO2
KTVI 110315Z AUTO 00000KT 10SM CLR 03/01 A3032 RMK AO2
KTVI 110255Z AUTO 26003KT 10SM CLR 03/02 A3032 RMK AO2
KTVI 110235Z AUTO 25004KT 10SM CLR 03/03 A3031 RMK AO2
KTVI 110215Z AUTO 25003KT 10SM CLR 04/01 A3032 RMK AO2
KTVI 110155Z AUTO 26003KT 10SM CLR 03/02 A3032 RMK AO2
KTVI 110135Z AUTO 25003KT 10SM CLR 03/02 A3032 RMK AO2
KTVI 110115Z AUTO 26003KT 10SM CLR 04/01 A3031 RMK AO2
KTVI 110055Z AUTO 26004KT 10SM CLR 03/03 A3031 RMK AO2
KTVI 110035Z AUTO 00000KT 10SM CLR 03/02 A3030 RMK AO2
KTVI 110015Z AUTO 00000KT 10SM CLR 04/02 A3030 RMK AO2
KTVI 102355Z AUTO 00000KT 10SM CLR 04/02 A3030 RMK AO2
KTVI 102335Z AUTO 00000KT 10SM CLR 05/01 A3030 RMK AO2
KTVI 102315Z AUTO 29003KT 10SM CLR 07/00 A3030 RMK AO2
KTVI 102255Z AUTO 00000KT 10SM CLR 07/00 A3029 RMK AO2
KTVI 102235Z AUTO 28003KT 10SM CLR 08/M01 A3029 RMK AO2
KTVI 102215Z AUTO 28003KT 10SM CLR 10/M02 A3029 RMK AO2
KTVI 102155Z AUTO 29003KT 10SM CLR 10/M02 A3029 RMK AO2
KTVI 102135Z AUTO 29004KT 10SM CLR 11/M03 A3029 RMK AO2
KTVI 102115Z AUTO 32006KT 10SM CLR 11/M04 A3028 RMK AO2
KTVI 102055Z AUTO 30006KT 10SM CLR 11/M02 A3028 RMK AO2
KTVI 102035Z AUTO 31005KT 10SM CLR 11/M03 A3028 RMK AO2
KTVI 102015Z AUTO 30004KT 10SM CLR 11/M04 A3028 RMK AO2
KTVI 101955Z AUTO 30008KT 280V340 10SM CLR 11/M02 A3029 RMK AO2
KTVI 101935Z AUTO 30006KT 10SM CLR 11/M03 A3029 RMK AO2
KTVI 101915Z AUTO 33006KT 10SM CLR 11/M03 A3029 RMK AO2
KTVI 101855Z AUTO 30006KT 10SM CLR 10/M03 A3029 RMK AO2
KTVI 101835Z AUTO 32009KT 10SM CLR 10/M03 A3030 RMK AO2
KTVI 101815Z AUTO 32007KT 7SM CLR 10/M02 A3030 RMK AO2
KTVI 101755Z AUTO 34006KT 10SM CLR 10/M03 A3031 RMK AO2
KTVI 101735Z AUTO 31005KT 10SM CLR 10/M02 A3032 RMK AO2
KTVI 101715Z AUTO 35006KT 10SM CLR 08/M01 A3033 RMK AO2
KTVI 101655Z AUTO 35005KT 10SM CLR 08/M01 A3034 RMK AO2
KTVI 101635Z AUTO 31006KT 10SM CLR 07/M01 A3035 RMK AO2
KTVI 101615Z AUTO 00000KT 10SM CLR 07/M01 A3035 RMK AO2
KTVI 101555Z AUTO 36004KT 10SM CLR 06/M01 A3035 RMK AO2
KTVI 101535Z AUTO 34006KT 10SM CLR 06/M01 A3036 RMK AO2
KTVI 101515Z AUTO 33003KT 10SM CLR 05/M01 A3036 RMK AO2
KTVI 101455Z AUTO 36005KT 10SM CLR 05/M01 A3036 RMK AO2
KTVI 101435Z AUTO 01005KT 10SM CLR 03/00 A3035 RMK AO2
KTVI 101415Z AUTO 02004KT 10SM CLR 03/00 A3034 RMK AO2
KTVI 101355Z AUTO 02006KT 10SM CLR 02/01 A3034 RMK AO2
KTVI 101335Z AUTO 01004KT 10SM CLR 01/01 A3034 RMK AO2
KTVI 101315Z AUTO 35005KT 10SM CLR 01/01 A3034 RMK AO2
KTVI 101255Z AUTO 34003KT 10SM CLR 00/00 A3034 RMK AO2
KTVI 101235Z AUTO 34003KT 10SM CLR 00/00 A3033 RMK AO2
KTVI 101215Z AUTO 00000KT 10SM CLR 00/00 A3032 RMK AO2
KTVI 101155Z AUTO 34004KT 10SM CLR 00/00 A3031 RMK AO2
KTVI 101135Z AUTO 34005KT 10SM CLR 00/00 A3031 RMK AO2
KTVI 101115Z AUTO 33003KT 10SM CLR 00/00 A3031 RMK AO2
KTVI 101055Z AUTO 00000KT 10SM CLR 00/00 A3030 RMK AO2
KTVI 101035Z AUTO 31003KT 10SM CLR 01/01 A3030 RMK AO2
KTVI 101015Z AUTO 31004KT 10SM CLR 01/01 A3029 RMK AO2
KTVI 100955Z AUTO 31004KT 10SM CLR 01/00 A3028 RMK AO2
KTVI 100935Z AUTO 31004KT 10SM CLR 01/00 A3029 RMK AO2
KTVI 100915Z AUTO 30003KT 10SM CLR 01/00 A3028 RMK AO2
KTVI 100855Z AUTO 30003KT 10SM CLR 01/00 A3028 RMK AO2
KTVI 100835Z AUTO 29003KT 10SM CLR 01/00 A3027 RMK AO2
KTVI 100815Z AUTO 31004KT 10SM CLR 02/00 A3027 RMK AO2
KTVI 100755Z AUTO 27003KT 10SM CLR 01/00 A3026 RMK AO2
KTVI 100735Z AUTO 27003KT 10SM CLR 01/00 A3025 RMK AO2
KTVI 100715Z AUTO 00000KT 10SM CLR 01/00 A3025 RMK AO2
KTVI 100655Z AUTO 00000KT 10SM CLR 01/00 A3024 RMK AO2
KTVI 100635Z AUTO 00000KT 10SM CLR 01/00 A3024 RMK AO2
KTVI 100615Z AUTO 00000KT 10SM CLR 01/00 A3024 RMK AO2
KTVI 100555Z AUTO 00000KT 10SM CLR 02/M01 A3023 RMK AO2
KTVI 100535Z AUTO 30003KT 10SM CLR 02/M01 A3023 RMK AO2
KTVI 100515Z AUTO 31003KT 10SM CLR 02/M01 A3023 RMK AO2
KTVI 100455Z AUTO 31003KT 10SM CLR 02/M01 A3022 RMK AO2
KTVI 100435Z AUTO 00000KT 10SM CLR 02/M01 A3023 RMK AO2
KTVI 100415Z AUTO 31003KT 10SM CLR 02/00 A3022 RMK AO2
KTVI 100355Z AUTO 28003KT 10SM CLR 02/M01 A3022 RMK AO2
KTVI 100335Z AUTO 00000KT 10SM CLR 02/00 A3021 RMK AO2
KTVI 100315Z AUTO 30003KT 10SM CLR 03/00 A3020 RMK AO2